HOURLY OBS INDEX

061

Hunter

CESSNOCK AIRPORT AWS

Site: 061260
Alt: 61.0m
30km SSE of SINGLETON


  Time     Wind        Temp  DP   Baro     Rain since   Rain past  Vis(m), Cloud(base in m), Weather
  local        km/h                         9am  last   hr   10m    
Thu 09:00  NNW 11/ 19  18.7 -1.7  1010.6    0.0   0.0   0.0   0.0   ----- 
Thu 09:30    N 11/ 15  20.2 -1.0  1010.6    0.0   0.0   0.0   0.0   ----- 
Thu 10:00  NNW 17/ 26  20.9 -1.0  1010.3    0.0   0.0   0.0   0.0   ----- 
Thu 10:30  NNW 13/ 20  22.7  0.5  1010.1    0.0   0.0   0.0   0.0   ----- 
Thu 11:00    W 24/ 28  23.3  1.0  1009.7    0.0   0.0   0.0   0.0   ----- 
Thu 11:30   SW 13/ 17  22.7 -0.1  1009.4    0.0   0.0   0.0   0.0   ----- 
Thu 12:00  NNW 15/ 32  24.0 -0.3  1008.7    0.0   0.0   0.0   0.0   ----- 
Thu 12:30  WNW 19/ 28  23.4 -0.8  1008.4    0.0   0.0   0.0   0.0   ----- 
Thu 13:00  WSW 22/ 41  24.8 -1.9  1008.0    0.0   0.0   0.0   0.0   ----- 
Thu 13:30  WSW 22/ 39  24.9 -1.8  1008.1    0.0   0.0   0.0   0.0   ----- 
Thu 14:00   SW 22/ 33  24.5 -1.3  1008.1    0.0   0.0   0.0   0.0   ----- 

COORANBONG (LAKE MACQUARIE AWS)

Site: 061412
Alt: 6.0m
35km WSW of NEWCASTLE


  Time     Wind        Temp  DP   Baro     Rain since   Rain past  Vis(m), Cloud(base in m), Weather
  local        km/h                         9am  last   hr   10m    
Thu 09:00    C  0/  0  15.8  4.8  1011.4    0.0   0.0   0.0   0.0   ----- 
Thu 09:30  NNE  2/  4  19.1  4.8  1011.3    0.0   0.0   0.0   0.0   ----- 
Thu 10:00    E  4/  7  20.8  3.1  1011.1    0.0   0.0   0.0   0.0   ----- 
Thu 10:30  NNE  6/  9  22.0  4.6  1011.0    0.0   0.0   0.0   0.0   ----- 
Thu 11:00   SE 13/ 24  19.6  8.0  1011.0    0.0   0.0   0.0   0.0   ----- 
Thu 11:30   SE 13/ 20  20.0  8.7  1010.9    0.0   0.0   0.0   0.0   ----- 
Thu 12:00  ESE 11/ 20  20.1  7.8  1010.4    0.0   0.0   0.0   0.0   ----- 
Thu 12:30  ESE  9/ 15  20.0  7.4  1010.0    0.0   0.0   0.0   0.0   ----- 
Thu 13:00    E  7/ 15  20.2  7.6  1009.6    0.0   0.0   0.0   0.0   ----- 
Thu 13:30    E 11/ 17  20.6  7.6  1009.4    0.0   0.0   0.0   0.0   ----- 
Thu 14:00  ESE 11/ 22  20.0  7.7  1009.4    0.0   0.0   0.0   0.0   ----- 

GOSFORD AWS

Site: 061425
Alt: 7.0m
km of


  Time     Wind        Temp  DP   Baro     Rain since   Rain past  Vis(m), Cloud(base in m), Weather
  local        km/h                         9am  last   hr   10m    
Thu 09:00  NNW  2/  6  18.0  3.5  ------    0.0   0.0   0.0   0.0   ----- 
Thu 09:30    S  4/  6  18.8  6.0  ------    0.0   0.0   0.0   0.0   ----- 
Thu 10:00    S  4/  7  19.3  6.1  ------    0.0   0.0   0.0   0.0   ----- 
Thu 10:30   NW  4/  7  20.3  2.6  ------    0.0   0.0   0.0   0.0   ----- 
Thu 11:00  WSW  4/ 11  20.4  3.2  ------    0.0   0.0   0.0   0.0   ----- 
Thu 11:30    S  7/ 13  20.5  4.5  ------    0.0   0.0   0.0   0.0   ----- 
Thu 12:00    W 20/ 30  21.6  3.3  ------    0.0   0.0   0.0   0.0   ----- 
Thu 12:30  WNW 22/ 28  21.6  2.3  ------    0.0   0.0   0.0   0.0   ----- 
Thu 13:00  SSW 11/ 17  20.9  5.7  ------    0.0   0.0   0.0   0.0   ----- 
Thu 13:30  SSE  7/ 13  20.5  4.9  ------    0.0   0.0   0.0   0.0   ----- 
Thu 14:00  SSE  9/ 15  19.7  7.1  ------    0.0   0.0   0.0   0.0   ----- 

MAITLAND AIRPORT AWS

Site: 061428
Alt: 27.5m
37km NW of NEWCASTLE


  Time     Wind        Temp  DP   Baro     Rain since   Rain past  Vis(m), Cloud(base in m), Weather
  local        km/h                         9am  last   hr   10m    
Thu 09:00  WNW 22/ 35  20.1 -1.1  1011.0    0.0   0.0   0.0   0.0   10000 
Thu 09:30  WNW 26/ 35  20.8 -1.1  1011.0    0.0   0.0   0.0   0.0   10000 
Thu 10:00  WNW 28/ 41  21.7  0.3  1010.8    0.0   0.0   0.0   0.0   10000 
Thu 10:20  WNW 28/ 46  22.3  0.2  1010.8    0.0   0.0  ----   0.0   10000 
Thu 10:30  WNW 30/ 43  22.5  0.4  1010.6    0.0   0.0   0.0   0.0   10000 
Thu 11:00  WNW 30/ 46  23.2  0.3  1010.2    0.0   0.0   0.0   0.0   10000 
Thu 11:01  WNW 28/ 46  23.6  1.3  1010.2    0.0   0.0  ----   0.0   10000 
Thu 11:30   NW 30/ 50  23.8  0.2  1009.7    0.0   0.0   0.0   0.0   10000 
Thu 12:00   NW 30/ 45  24.3 -0.1  1009.1    0.0   0.0   0.0   0.0   10000 
Thu 12:17   NW 28/ 46  24.7 -0.4  1008.8    0.0   0.0  ----   0.0   10000 
Thu 12:30   NW 32/ 45  24.7 -0.4  1008.7    0.0   0.0   0.0   0.0   10000 
Thu 13:00   NW 30/ 46  24.6 -1.3  1008.3    0.0   0.0   0.0   0.0   10000 
Thu 13:30  WNW 26/ 46  25.1 -0.9  1008.3    0.0   0.0   0.0   0.0   10000 
Thu 13:31   NW 28/ 46  24.9 -1.8  1008.2    0.0   0.0  ----   0.0   10000 
Thu 14:00  ESE 19/ 37  22.9  6.6  1008.8    0.0   0.0   0.0   0.0   10000|BR3000 

MANGROVE MOUNTAIN AWS

Site: 061375
Alt: 305.0m
19km NW of GOSFORD


  Time     Wind        Temp  DP   Baro     Rain since   Rain past  Vis(m), Cloud(base in m), Weather
  local        km/h                         9am  last   hr   10m    
Thu 09:00    W  9/ 13  18.2  0.4  ------    0.0   0.0   0.0   0.0   ----- 
Thu 09:30  WSW  9/ 15  18.7 -0.2  ------    0.0   0.0   0.0   0.0   ----- 
Thu 10:00   SW  9/ 15  18.6 -0.7  ------    0.0   0.0   0.0   0.0   ----- 
Thu 10:30  WSW  7/ 13  19.3 -0.1  ------    0.0   0.0   0.0   0.0   ----- 
Thu 11:00    W  7/ 13  20.0 -0.1  ------    0.0   0.0   0.0   0.0   ----- 
Thu 11:30  WNW 11/ 20  19.9 -1.2  ------    0.0   0.0   0.0   0.0   ----- 
Thu 12:00  WSW  7/ 15  20.6  1.5  ------    0.0   0.0   0.0   0.0   ----- 
Thu 12:30  WSW 11/ 26  20.3  1.2  ------    0.0   0.0   0.0   0.0   ----- 
Thu 13:00  WSW 11/ 26  20.4  1.3  ------    0.0   0.0   0.0   0.0   ----- 
Thu 13:30    W 11/ 19  20.9  0.2  ------    0.0   0.0   0.0   0.0   ----- 
Thu 14:00    W  9/ 19  21.9  1.6  ------    0.0   0.0   0.0   0.0   ----- 

MERRIWA (ROSCOMMON)

Site: 061287
Alt: 375.0m
68km W of MUSWELLBROOK


  Time     Wind        Temp  DP   Baro     Rain since   Rain past  Vis(m), Cloud(base in m), Weather
  local        km/h                         9am  last   hr   10m    
Thu 09:00  WNW 32/ 46  17.7 -1.5  1013.0    0.0   0.0   0.0   0.0   ----- 
Thu 09:30  WNW 26/ 37  15.7 -2.3  1013.3    0.0   0.0   0.0   0.0   ----- 
Thu 10:00  WNW 30/ 39  17.8 -1.9  1013.0    0.0   0.0   0.0   0.0   ----- 
Thu 10:30  WNW 30/ 43  19.2 -0.7  1012.9    0.0   0.0   0.0   0.0   ----- 
Thu 11:00    W 26/ 35  19.2 -1.3  1012.8    0.0   0.0   0.0   0.0   ----- 
Thu 11:30    W 30/ 48  20.1  0.0  1012.5    0.0   0.0   0.0   0.0   ----- 
Thu 12:00    W 26/ 37  20.4  1.8  1012.2    0.0   0.0   0.0   0.0   -----|SC2400 
Thu 12:30    W 26/ 41  20.4  1.3  1011.7    0.0   0.0   0.0   0.0   ----- 
Thu 13:00    W 28/ 43  20.6  1.5  1011.4    0.0   0.0   0.0   0.0   ----- 
Thu 13:10    W 28/ 48  20.5  1.9  1011.3    0.0   0.0  ----   0.0   ----- 
Thu 13:30    W 35/ 59  21.0  1.3  1011.2    0.0   0.0   0.0   0.0   ----- 
Thu 14:00    W 35/ 50  20.4  1.3  1011.3    0.0   0.0   0.0   0.0   ----- 
Thu 14:04    W 35/ 54  20.2  1.1  1011.4    0.0   0.0  ----   0.0   ----- 

MURRURUNDI GAP AWS

Site: 061392
Alt: 729.4m
59km N of MUSWELLBROOK


  Time     Wind        Temp  DP   Baro     Rain since   Rain past  Vis(m), Cloud(base in m), Weather
  local        km/h                         9am  last   hr   10m    
Thu 09:00   NW 35/ 43  11.4 -3.9  1014.0    0.0   0.0   0.0   0.0   10000|BR3000 
Thu 09:30   NW 37/ 45  12.2 -3.6  1013.9    0.0   0.0   0.0   0.0   10000 
Thu 10:00   NW 35/ 45  12.3 -3.5  1013.9    0.0   0.0   0.0   0.0   10000|BR3300 
Thu 10:30   NW 33/ 43  13.5 -3.3  1013.9    0.0   0.0   0.0   0.0   10000|BR3000 
Thu 11:00   NW 30/ 41  13.8 -3.0  1013.8    0.0   0.0   0.0   0.0   10000|SC3300 
Thu 11:30   NW 28/ 35  14.1 -3.6  1013.5    0.0   0.0   0.0   0.0   10000 
Thu 12:00  WNW 32/ 45  14.9 -3.0  1013.0    0.0   0.0   0.0   0.0   10000 
Thu 12:30  WNW 32/ 41  15.1 -2.8  1012.7    0.0   0.0   0.0   0.0   10000 
Thu 12:37   NW 32/ 52  15.5 -2.4  1012.4    0.0   0.0  ----   0.0   10000 
Thu 13:00   NW 39/ 50  15.5 -2.0  1012.0    0.0   0.0   0.0   0.0   10000 
Thu 13:30  NNW 37/ 46  16.7 -2.4  1011.7    0.0   0.0   0.0   0.0   10000 
Thu 13:41   NW 35/ 59  17.9 -1.3  1011.4    0.0   0.0  ----   0.0   10000 
Thu 14:00   NW 46/ 59  17.7 -2.0  1011.0    0.0   0.0   0.0   0.0   10000 
Thu 14:06   NW 50/ 69  17.8 -1.9  1010.9    0.0   0.0  ----   0.0   10000 

NEWCASTLE NOBBYS SIGNAL STATION AWS

Site: 061055
Alt: 33.0m
2km NE of NEWCASTLE


  Time     Wind        Temp  DP   Baro     Rain since   Rain past  Vis(m), Cloud(base in m), Weather
  local        km/h                         9am  last   hr   10m    
Thu 09:00    W 11/ 20  18.2  0.8  ------    0.0   0.0   0.0   0.0   ----- 
Thu 09:30    W 13/ 19  20.2  1.1  ------    0.0   0.0   0.0   0.0   ----- 
Thu 10:00    W  7/  9  21.7  1.4  ------    0.0   0.0   0.0   0.0   ----- 
Thu 10:30  WNW 13/ 22  22.8  1.8  ------    0.0   0.0   0.0   0.0   ----- 
Thu 11:00    W 15/ 24  23.1  2.6  ------    0.0   0.0   0.0   0.0   ----- 
Thu 11:30    S 19/ 24  19.5  6.3  ------    0.0   0.0   0.0   0.0   ----- 
Thu 12:00  SSE 32/ 37  17.9 10.0  ------    0.0   0.0   0.0   0.0   ----- 
Thu 12:30  SSE 32/ 35  17.5  9.9  ------    0.0   0.0   0.0   0.0   ----- 
Thu 13:00  SSE 30/ 35  17.3 10.0  ------    0.0   0.0   0.0   0.0   ----- 
Thu 13:30  SSE 22/ 24  17.8 10.7  ------    0.0   0.0   0.0   0.0   ----- 
Thu 14:00  SSE 22/ 26  17.6 10.5  ------    0.0   0.0   0.0   0.0   ----- 

NORAH HEAD AWS

Site: 061366
Alt: 18.8m
27km NE of GOSFORD


  Time     Wind        Temp  DP   Baro     Rain since   Rain past  Vis(m), Cloud(base in m), Weather
  local        km/h                         9am  last   hr   10m    
Thu 09:00  WNW  2/  7  19.0  3.6  1011.0    0.0   0.0   0.0   0.0   ----- 
Thu 09:30   SW  9/ 13  18.4  3.5  1011.2    0.0   0.0   0.0   0.0   ----- 
Thu 10:00  SSE 28/ 33  19.1 10.4  1011.2    0.0   0.0   0.0   0.0   ----- 
Thu 10:30    S 30/ 33  18.4  9.5  1011.2    0.0   0.0   0.0   0.0   ----- 
Thu 11:00    S 22/ 24  19.3 10.0  1011.1    0.0   0.0   0.0   0.0   ----- 
Thu 11:30  SSE 20/ 24  20.0 10.4  1010.9    0.0   0.0   0.0   0.0   ----- 
Thu 12:00  SSE 17/ 20  20.1  9.9  1010.5    0.0   0.0   0.0   0.0   ----- 
Thu 12:30  SSE 17/ 19  20.4 10.5  1010.1    0.0   0.0   0.0   0.0   ----- 
Thu 13:00  SSE 19/ 22  20.5 10.6  1009.7    0.0   0.0   0.0   0.0   ----- 
Thu 13:30  SSE 20/ 24  19.4 10.9  1009.6    0.0   0.0   0.0   0.0   ----- 
Thu 14:00    S 26/ 33  18.4 10.3  1009.7    0.0   0.0   0.0   0.0   ----- 

PATERSON (TOCAL AWS)

Site: 061250
Alt: 30.0m
38km NNW of NEWCASTLE


  Time     Wind        Temp  DP   Baro     Rain since   Rain past  Vis(m), Cloud(base in m), Weather
  local        km/h                         9am  last   hr   10m    
Thu 09:00  WNW 17/ 28  20.4----  ------    0.0   0.0   0.0   0.0   ----- 
Thu 09:30    W 19/ 33  21.4----  ------    0.0   0.0   0.0   0.0   ----- 
Thu 09:49   NW 28/ 46  21.9----  ------    0.0   0.0  ----   0.0   ----- 
Thu 10:00  WNW 24/ 46  22.0----  ------    0.0   0.0   0.0   0.0   ----- 
Thu 10:30    W 20/ 37  22.4----  ------    0.0   0.0   0.0   0.0   ----- 
Thu 11:00    W 20/ 35  23.3----  ------    0.0   0.0   0.0   0.0   ----- 
Thu 11:30  WNW 28/ 48  23.6----  ------    0.0   0.0   0.0   0.0   ----- 
Thu 12:00  WNW 20/ 46  24.5----  ------    0.0   0.0   0.0   0.0   ----- 
Thu 12:09   NW 28/ 52  25.0----  ------    0.0   0.0  ----   0.0   ----- 
Thu 12:30    W 20/ 41  24.7----  ------    0.0   0.0   0.0   0.0   ----- 
Thu 13:00   NW 20/ 37  25.0----  ------    0.0   0.0   0.0   0.0   ----- 
Thu 13:30   NW 26/ 43  25.5----  ------    0.0   0.0   0.0   0.0   ----- 
Thu 14:00  WNW 20/ 32  25.0----  ------    0.0   0.0   0.0   0.0   ----- 

SCONE AIRPORT AWS

Site: 061363
Alt: 221.4m
26km NNW of MUSWELLBROOK


  Time     Wind        Temp  DP   Baro     Rain since   Rain past  Vis(m), Cloud(base in m), Weather
  local        km/h                         9am  last   hr   10m    
Thu 09:00  NNW 19/ 28  18.7 -4.0  1012.4    0.0   0.0   0.0   0.0   10000 
Thu 09:30  NNW 13/ 17  18.8 -4.0  1012.3    0.0   0.0   0.0   0.0   10000 
Thu 10:00   NW 17/ 26  19.6 -2.7  1012.5    0.0   0.0   0.0   0.0   10000 
Thu 10:30  NNW 20/ 30  20.8 -2.3  1012.2    0.0   0.0   0.0   0.0   10000 
Thu 11:00    N 19/ 30  21.6 -2.3  1011.7    0.0   0.0   0.0   0.0   10000 
Thu 11:30  NNW 20/ 30  22.5 -1.6  1011.3    0.0   0.0   0.0   0.0   10000 
Thu 12:00  NNW 24/ 35  23.1 -1.8  1010.8    0.0   0.0   0.0   0.0   10000 
Thu 12:30   NW 28/ 37  22.8 -2.0  1010.4    0.0   0.0   0.0   0.0   10000|SC2760 
Thu 13:00  NNW 28/ 45  22.5 -2.2  1010.3    0.0   0.0   0.0   0.0   10000|BR2880 
Thu 13:30  NNW 20/ 30  22.7 -2.8  1010.2    0.0   0.0   0.0   0.0   10000|SC2880 
Thu 14:00   NW 24/ 33  23.7 -2.0  1010.2    0.0   0.0   0.0   0.0   10000|SC2940 

SINGLETON (DEFENCE)

Site: 061430
Alt: 125.0m
km of


  Time     Wind        Temp  DP   Baro     Rain since   Rain past  Vis(m), Cloud(base in m), Weather
  local        km/h                         9am  last   hr   10m    
Thu 09:00   NW 20/ 26  19.2 -0.7  ------    0.0   0.0   0.0   0.0   ----- 
Thu 09:30   NW 19/ 26  19.7 -0.9  ------    0.0   0.0   0.0   0.0   ----- 
Thu 10:00   NW 17/ 30  21.5  0.7  ------    0.0   0.0   0.0   0.0   ----- 
Thu 10:30  WNW 28/ 41  22.4  0.9  ------    0.0   0.0   0.0   0.0   ----- 
Thu 10:56  WNW 28/ 46  23.3  1.0  ------    0.0   0.0  ----   0.0   ----- 
Thu 11:00   NW 32/ 46  23.1  0.9  ------    0.0   0.0   0.0   0.0   ----- 
Thu 11:14   NW 30/ 48  22.7 -0.1  ------    0.0   0.0  ----   0.0   ----- 
Thu 11:30   NW 28/ 45  23.7  0.1  ------    0.0   0.0   0.0   0.0   ----- 
Thu 12:00   NW 30/ 46  23.8  0.2  ------    0.0   0.0   0.0   0.0   ----- 
Thu 12:10   NW 28/ 46  24.1 -0.9  ------    0.0   0.0  ----   0.0   ----- 
Thu 12:30  WNW 20/ 35  25.1 -0.9  ------    0.0   0.0   0.0   0.0   ----- 
Thu 13:00    W 22/ 37  25.0 -1.7  ------    0.0   0.0   0.0   0.0   ----- 
Thu 13:30  WSW 22/ 35  24.5 -2.1  ------    0.0   0.0   0.0   0.0   ----- 
Thu 14:00    W 17/ 30  24.3 -0.8  ------    0.0   0.0   0.0   0.0   ----- 

WILLIAMTOWN RAAF

Site: 061078
Alt: 7.5m
16km NNE of NEWCASTLE


  Time     Wind        Temp  DP   Baro     Rain since   Rain past  Vis(m), Cloud(base in m), Weather
  local        km/h                         9am  last   hr   10m    
Thu 09:00  WNW 24/ 33  19.2 -0.7  1011.1    0.0   0.0   0.0   0.0   10000 
Thu 09:30  WNW 30/ 39  20.8 -0.5  1011.0    0.0   0.0   0.0   0.0   10000 
Thu 10:00  WNW 32/ 39  21.5 -1.1  1011.0    0.0   0.0   0.0   0.0   10000 
Thu 10:30  WNW 26/ 33  22.3 -0.4  1010.9    0.0   0.0   0.0   0.0   10000 
Thu 11:00  WNW 28/ 35  23.0  0.2  1010.5    0.0   0.0   0.0   0.0   10000 
Thu 11:30    W 26/ 37  24.1  1.1  1010.0    0.0   0.0   0.0   0.0   10000 
Thu 11:38    W 30/ 48  24.3  0.6  1009.9    0.0   0.0  ----   0.0   10000 
Thu 12:00    W 30/ 43  24.5  0.8  1009.5    0.0   0.0   0.0   0.0   10000 
Thu 12:00    W 30/ 43  24.5  0.8  1009.5    0.0   0.0  ----   0.0   10000 
Thu 12:22  SSE 33/ 45  19.5  9.4  1009.5    0.0   0.0  ----   0.0  *10000|FE1200cu 
Thu 12:30  SSE 33/ 41  19.4  8.7  1009.6    0.0   0.0   0.0   0.0  *10000|FE1350cu 
Thu 13:00  SSE 28/ 39  19.2  9.1  1009.6    0.0   0.0   0.0   0.0  *10000|FE1350cu 
Thu 13:30  SSE 28/ 33  18.8  8.5  1009.4    0.0   0.0   0.0   0.0  *10000|FE1200cu 
Thu 14:00   SE 24/ 32  18.9  8.3  1009.6    0.0   0.0   0.0   0.0   10000|SC2940